createdAt,value
2022-09-20T00:00:18.494Z,10.22
2022-09-20T00:03:23.607Z,10.17
2022-09-20T00:06:29.969Z,10.01
2022-09-20T00:09:32.823Z,10.09
2022-09-20T00:12:35.389Z,10.08
2022-09-20T00:15:43.864Z,10.05
2022-09-20T00:18:54.227Z,9.99
2022-09-20T00:21:58.529Z,9.95
2022-09-20T00:25:01.046Z,9.84
2022-09-20T00:28:03.933Z,9.79
2022-09-20T00:31:07.839Z,9.74
2022-09-20T00:34:32.378Z,9.71
2022-09-20T00:37:36.266Z,9.77
2022-09-20T00:40:39.823Z,9.81
2022-09-20T00:43:45.520Z,9.78
2022-09-20T00:46:48.517Z,9.85
2022-09-20T00:49:56.584Z,9.89
2022-09-20T00:53:31.470Z,9.99
2022-09-20T00:56:39.000Z,9.84
2022-09-20T00:59:47.137Z,9.86
2022-09-20T01:02:54.017Z,9.78
2022-09-20T01:05:58.796Z,9.83
2022-09-20T01:09:05.668Z,9.91
2022-09-20T01:12:15.122Z,9.84
2022-09-20T01:15:20.971Z,9.85
2022-09-20T01:18:24.232Z,9.88
2022-09-20T01:21:29.184Z,9.88
2022-09-20T01:24:53.075Z,9.98
2022-09-20T01:27:56.946Z,9.96
2022-09-20T01:31:32.330Z,9.88
2022-09-20T01:35:01.328Z,9.92
2022-09-20T01:38:29.012Z,9.80
2022-09-20T01:42:00.202Z,9.86
2022-09-20T01:45:10.197Z,9.78
2022-09-20T01:48:36.241Z,9.95
2022-09-20T01:52:18.777Z,9.95
2022-09-20T01:55:27.264Z,9.91
2022-09-20T01:59:19.366Z,9.81
2022-09-20T02:02:54.082Z,9.89
2022-09-20T02:06:54.493Z,9.58
2022-09-20T02:10:05.983Z,9.51
2022-09-20T02:13:27.373Z,9.44
2022-09-20T02:16:52.093Z,9.49
2022-09-20T02:20:08.108Z,9.56
2022-09-20T02:23:19.723Z,9.54
2022-09-20T02:27:07.839Z,9.42
2022-09-20T02:30:25.666Z,9.44
2022-09-20T02:33:59.119Z,9.26
2022-09-20T02:37:25.664Z,9.19
2022-09-20T02:40:50.147Z,9.19
2022-09-20T02:44:17.666Z,9.08
2022-09-20T02:47:40.203Z,9.14
2022-09-20T02:50:59.970Z,9.22
2022-09-20T02:54:24.852Z,9.11
2022-09-20T02:58:09.109Z,8.99
2022-09-20T03:01:33.243Z,8.98
2022-09-20T03:05:10.243Z,8.90
2022-09-20T03:08:59.183Z,8.83
2022-09-20T03:12:28.567Z,9.03
2022-09-20T03:15:50.169Z,9.04
2022-09-20T03:19:13.451Z,8.99
2022-09-20T03:22:39.664Z,9.04
2022-09-20T03:25:51.911Z,9.03
2022-09-20T03:29:05.487Z,9.15
2022-09-20T03:32:17.006Z,9.14
2022-09-20T03:35:54.927Z,9.11
2022-09-20T03:39:35.680Z,9.08
2022-09-20T03:42:49.076Z,9.13
2022-09-20T03:46:21.437Z,9.16
2022-09-20T03:49:43.788Z,9.10
2022-09-20T03:53:14.092Z,9.01
2022-09-20T03:56:22.996Z,8.92
2022-09-20T03:59:57.029Z,8.96
2022-09-20T04:03:23.158Z,8.82
2022-09-20T04:06:38.329Z,8.77
2022-09-20T04:10:01.195Z,8.65
2022-09-20T04:13:35.083Z,8.70
2022-09-20T04:16:58.643Z,8.51
2022-09-20T04:20:15.705Z,8.55
2022-09-20T04:23:56.072Z,8.55
2022-09-20T04:27:25.823Z,8.48
2022-09-20T04:30:32.101Z,8.48
2022-09-20T04:33:45.402Z,8.45
2022-09-20T04:36:58.822Z,8.47
2022-09-20T04:40:16.114Z,8.12
2022-09-20T04:43:32.353Z,8.17
2022-09-20T04:47:09.783Z,8.23
2022-09-20T04:50:30.117Z,8.20
2022-09-20T04:54:10.371Z,8.12
2022-09-20T04:57:53.052Z,8.02
2022-09-20T05:00:59.026Z,7.93
2022-09-20T05:04:40.509Z,7.96
2022-09-20T05:08:21.304Z,8.39
2022-09-20T05:11:39.151Z,9.05
2022-09-20T05:14:51.193Z,9.13
2022-09-20T05:18:10.957Z,8.94
2022-09-20T05:21:35.089Z,8.87
2022-09-20T05:24:40.517Z,8.92
2022-09-20T05:28:07.269Z,9.02
2022-09-20T05:31:33.989Z,9.02
2022-09-20T05:34:48.795Z,8.92
2022-09-20T05:38:20.874Z,8.78
2022-09-20T05:41:52.526Z,8.71
2022-09-20T05:45:23.998Z,8.72
2022-09-20T05:48:32.614Z,8.79
2022-09-20T05:51:56.344Z,8.82
2022-09-20T05:55:20.980Z,8.83
2022-09-20T05:58:46.559Z,8.89
2022-09-20T06:02:21.759Z,8.93
2022-09-20T06:06:02.825Z,9.11
2022-09-20T06:09:27.186Z,9.18
2022-09-20T06:12:43.125Z,9.34
2022-09-20T06:15:57.529Z,9.49
2022-09-20T06:19:29.374Z,9.63
2022-09-20T06:22:45.200Z,9.70
2022-09-20T06:25:48.023Z,9.91
2022-09-20T06:28:58.205Z,9.98
2022-09-20T06:32:01.646Z,10.14
2022-09-20T06:35:05.403Z,10.29
2022-09-20T06:38:57.625Z,10.38
2022-09-20T06:42:01.077Z,10.56
2022-09-20T06:45:04.643Z,10.84
2022-09-20T06:48:09.189Z,11.05
2022-09-20T06:51:12.566Z,11.30
2022-09-20T06:54:18.769Z,11.65
2022-09-20T06:57:37.198Z,12.68
2022-09-20T07:00:42.725Z,14.47
2022-09-20T07:03:49.845Z,15.14
2022-09-20T07:06:54.375Z,15.89
2022-09-20T07:09:58.672Z,16.18
2022-09-20T07:13:02.494Z,16.49
2022-09-20T07:16:08.677Z,15.75
2022-09-20T07:19:11.279Z,15.51
2022-09-20T07:22:14.709Z,15.07
2022-09-20T07:25:18.407Z,14.70
2022-09-20T07:28:21.478Z,14.53
2022-09-20T07:31:26.573Z,14.08
2022-09-20T07:34:29.749Z,14.05
2022-09-20T07:37:36.847Z,14.00
2022-09-20T07:40:40.125Z,13.95
2022-09-20T07:43:42.814Z,13.79
2022-09-20T07:46:48.226Z,13.77
2022-09-20T07:49:51.561Z,13.87
2022-09-20T07:52:57.548Z,13.75
2022-09-20T07:56:02.459Z,13.85
2022-09-20T07:59:06.089Z,14.07
2022-09-20T08:02:15.097Z,14.22
2022-09-20T08:05:18.073Z,14.46
2022-09-20T08:08:20.806Z,14.35
2022-09-20T08:11:27.770Z,14.14
2022-09-20T08:14:30.654Z,14.41
2022-09-20T08:17:34.592Z,15.45
2022-09-20T08:20:38.738Z,15.66
2022-09-20T08:23:43.858Z,15.69
2022-09-20T08:26:46.983Z,15.53
2022-09-20T08:29:50.347Z,15.28
2022-09-20T08:32:54.086Z,14.93
2022-09-20T08:35:57.663Z,14.75
2022-09-20T08:42:33.870Z,14.50
2022-09-20T08:45:38.905Z,14.40
2022-09-20T08:48:42.165Z,15.12
2022-09-20T08:51:49.340Z,15.20
2022-09-20T08:54:52.406Z,15.11
2022-09-20T08:57:58.305Z,14.95
2022-09-20T09:01:01.680Z,15.44
2022-09-20T09:04:17.491Z,15.69
2022-09-20T09:07:22.766Z,15.63
2022-09-20T09:10:25.425Z,15.34
2022-09-20T09:13:37.739Z,15.10
2022-09-20T09:16:40.454Z,14.69
2022-09-20T09:19:54.514Z,14.12
2022-09-20T09:23:07.654Z,13.79
2022-09-20T09:26:21.387Z,13.50
2022-09-20T09:29:24.537Z,13.41
2022-09-20T09:32:33.564Z,13.43
2022-09-20T09:35:36.540Z,13.56
2022-09-20T09:38:41.753Z,13.53
2022-09-20T09:41:46.556Z,13.55
2022-09-20T09:44:50.601Z,14.69
2022-09-20T09:47:53.981Z,16.62
2022-09-20T09:51:12.878Z,18.39
2022-09-20T09:54:20.042Z,18.30
2022-09-20T09:57:41.365Z,17.83
2022-09-20T10:00:46.885Z,16.50
2022-09-20T10:04:01.756Z,15.91
2022-09-20T10:07:25.252Z,15.55
2022-09-20T10:10:45.353Z,15.21
2022-09-20T10:14:06.764Z,14.82
2022-09-20T10:17:35.046Z,14.75
2022-09-20T10:20:57.695Z,15.22
2022-09-20T10:24:06.526Z,16.33
2022-09-20T10:27:14.836Z,16.38
2022-09-20T10:30:22.475Z,16.41
2022-09-20T10:33:43.356Z,17.22
2022-09-20T10:36:56.037Z,17.63
2022-09-20T10:40:47.568Z,18.78
2022-09-20T10:43:53.701Z,18.96
2022-09-20T10:46:59.677Z,20.29
2022-09-20T10:50:48.641Z,19.77
2022-09-20T10:54:18.044Z,19.60
2022-09-20T10:57:46.600Z,18.83
2022-09-20T11:01:08.081Z,19.00
2022-09-20T11:04:37.202Z,18.33
2022-09-20T11:07:54.925Z,18.45
2022-09-20T11:11:45.753Z,17.98
2022-09-20T11:14:56.016Z,17.46
2022-09-20T11:18:46.850Z,17.29
2022-09-20T11:21:57.438Z,16.76
2022-09-20T11:25:21.507Z,16.14
2022-09-20T11:28:34.188Z,15.87
2022-09-20T11:31:43.738Z,15.56
2022-09-20T11:34:56.496Z,15.53
2022-09-20T11:38:16.568Z,15.49
2022-09-20T11:41:27.536Z,15.49
2022-09-20T11:44:42.128Z,15.83
2022-09-20T11:47:54.907Z,16.81
2022-09-20T11:51:21.481Z,18.56
2022-09-20T11:54:39.805Z,19.64
2022-09-20T11:57:43.850Z,19.58
2022-09-20T12:00:50.703Z,18.04
2022-09-20T12:04:20.618Z,17.46
2022-09-20T12:07:26.190Z,17.44
2022-09-20T12:10:35.399Z,18.21
2022-09-20T12:13:40.895Z,18.16
2022-09-20T12:16:48.706Z,18.33
2022-09-20T12:19:51.355Z,18.21
2022-09-20T12:23:32.712Z,19.22
2022-09-20T12:26:38.236Z,20.40
2022-09-20T12:29:52.939Z,21.09
2022-09-20T12:32:57.962Z,21.50
2022-09-20T12:36:15.932Z,21.61
2022-09-20T12:39:27.577Z,19.92
2022-09-20T12:42:34.582Z,18.55
2022-09-20T12:45:37.514Z,18.08
2022-09-20T12:48:40.599Z,17.11
2022-09-20T12:52:09.691Z,17.35
2022-09-20T12:55:31.739Z,18.96
2022-09-20T12:58:48.531Z,20.89
2022-09-20T13:01:52.386Z,19.38
2022-09-20T13:04:56.058Z,19.32
2022-09-20T13:08:10.181Z,17.75
2022-09-20T13:11:18.885Z,17.96
2022-09-20T13:14:33.332Z,18.49
2022-09-20T13:17:37.445Z,18.57
2022-09-20T13:20:43.004Z,18.19
2022-09-20T13:23:50.192Z,18.87
2022-09-20T13:26:56.268Z,19.49
2022-09-20T13:30:17.688Z,19.76
2022-09-20T13:33:25.386Z,20.03
2022-09-20T13:36:30.439Z,20.28
2022-09-20T13:39:37.446Z,19.20
2022-09-20T13:42:42.883Z,18.98
2022-09-20T13:45:56.552Z,19.06
2022-09-20T13:49:20.976Z,19.41
2022-09-20T13:52:26.597Z,19.01
2022-09-20T13:55:35.325Z,17.99
2022-09-20T13:58:38.522Z,17.78
2022-09-20T14:01:51.669Z,16.98
2022-09-20T14:04:57.454Z,16.92
2022-09-20T14:08:01.329Z,16.48
2022-09-20T14:11:12.478Z,16.14
2022-09-20T14:14:22.040Z,16.00
2022-09-20T14:17:36.075Z,15.31
2022-09-20T14:20:45.009Z,15.06
2022-09-20T14:23:59.991Z,14.72
2022-09-20T14:27:21.208Z,14.06
2022-09-20T14:30:36.768Z,13.46
2022-09-20T14:33:51.757Z,12.91
2022-09-20T14:37:52.180Z,12.72
2022-09-20T14:40:58.585Z,12.33
2022-09-20T14:44:07.713Z,12.22
2022-09-20T14:47:18.133Z,12.01
2022-09-20T14:50:37.660Z,12.04
2022-09-20T14:53:42.558Z,12.00
2022-09-20T15:00:06.143Z,12.00
2022-09-20T15:03:18.500Z,12.19
2022-09-20T15:06:24.454Z,12.32
2022-09-20T15:09:32.420Z,12.44
2022-09-20T15:12:39.883Z,12.52
2022-09-20T15:15:44.690Z,12.56
2022-09-20T15:18:47.476Z,12.55
2022-09-20T15:21:50.418Z,12.62
2022-09-20T15:24:53.010Z,12.67
2022-09-20T15:27:58.052Z,12.67
2022-09-20T15:31:00.780Z,12.58
2022-09-20T15:34:07.178Z,12.55
2022-09-20T15:37:09.890Z,12.42
2022-09-20T15:40:13.067Z,12.29
2022-09-20T15:43:18.011Z,12.33
2022-09-20T15:46:23.423Z,12.18
2022-09-20T15:49:26.865Z,12.16
2022-09-20T15:52:34.655Z,12.08
2022-09-20T15:55:37.282Z,11.94
2022-09-20T15:58:47.007Z,11.97
2022-09-20T16:01:49.991Z,11.90
2022-09-20T16:04:55.941Z,11.89
2022-09-20T16:07:58.641Z,11.90
2022-09-20T16:11:02.357Z,11.81
2022-09-20T16:14:05.874Z,11.78
2022-09-20T16:17:08.847Z,11.74
2022-09-20T16:20:11.528Z,11.61
2022-09-20T16:23:14.531Z,11.63
2022-09-20T16:26:18.458Z,11.61
2022-09-20T16:29:22.420Z,11.48
2022-09-20T16:32:24.970Z,11.39
2022-09-20T16:35:28.000Z,11.29
2022-09-20T16:38:30.618Z,11.27
2022-09-20T16:41:33.903Z,11.21
2022-09-20T16:44:38.011Z,11.16
2022-09-20T16:47:41.294Z,11.04
2022-09-20T16:50:47.554Z,10.98
2022-09-20T16:53:53.536Z,10.92
2022-09-20T16:56:56.221Z,10.84
2022-09-20T16:59:59.858Z,10.81
2022-09-20T17:03:02.511Z,10.77
2022-09-20T17:06:06.890Z,10.71
2022-09-20T17:09:10.031Z,10.70
2022-09-20T17:12:13.902Z,10.74
2022-09-20T17:15:16.701Z,10.84
2022-09-20T17:18:20.809Z,10.86
2022-09-20T17:21:23.426Z,11.08
2022-09-20T17:24:26.516Z,11.04
2022-09-20T17:27:29.242Z,11.07
2022-09-20T17:30:32.853Z,10.94
2022-09-20T17:33:37.092Z,10.88
2022-09-20T17:36:43.765Z,10.93
2022-09-20T17:39:46.618Z,10.98
2022-09-20T17:42:49.571Z,11.01
2022-09-20T17:45:52.209Z,11.06
2022-09-20T17:48:57.293Z,11.08
2022-09-20T17:52:00.168Z,10.94
2022-09-20T17:55:04.228Z,10.87
2022-09-20T17:58:08.239Z,10.82
2022-09-20T18:01:16.824Z,10.80
2022-09-20T18:04:25.320Z,10.86
2022-09-20T18:07:28.037Z,10.70
2022-09-20T18:10:31.771Z,10.76
2022-09-20T18:13:37.874Z,10.81
2022-09-20T18:16:44.388Z,10.77
2022-09-20T18:19:47.025Z,10.71
2022-09-20T18:22:50.096Z,10.75
2022-09-20T18:26:12.300Z,10.62
2022-09-20T18:29:18.410Z,10.44
2022-09-20T18:32:21.074Z,10.38
2022-09-20T18:35:25.287Z,10.33
2022-09-20T18:38:28.064Z,10.53
2022-09-20T18:41:33.595Z,10.52
2022-09-20T18:44:36.666Z,10.39
2022-09-20T18:47:42.786Z,10.48
2022-09-20T18:50:56.610Z,10.47
2022-09-20T18:54:00.706Z,10.43
2022-09-20T18:57:03.523Z,10.37
2022-09-20T19:00:09.673Z,10.37
2022-09-20T19:03:24.542Z,10.47
2022-09-20T19:06:36.642Z,10.51
2022-09-20T19:09:54.548Z,10.59
2022-09-20T19:13:16.487Z,10.67
2022-09-20T19:16:27.915Z,10.64
2022-09-20T19:19:34.031Z,10.58
2022-09-20T19:23:04.890Z,10.55
2022-09-20T19:26:24.198Z,10.66
2022-09-20T19:29:34.012Z,10.64
2022-09-20T19:32:49.480Z,10.61
2022-09-20T19:36:03.292Z,10.56
2022-09-20T19:39:40.200Z,10.55
2022-09-20T19:43:18.986Z,10.39
2022-09-20T19:46:42.194Z,10.38
2022-09-20T19:50:20.909Z,10.26
2022-09-20T19:53:36.370Z,10.30
2022-09-20T19:56:58.259Z,10.02
2022-09-20T20:00:11.787Z,10.03
2022-09-20T20:03:29.436Z,10.02
2022-09-20T20:07:05.228Z,9.99
2022-09-20T20:10:31.650Z,10.02
2022-09-20T20:14:04.383Z,10.04
2022-09-20T20:17:30.837Z,9.87
2022-09-20T20:20:45.859Z,9.89
2022-09-20T20:24:29.799Z,9.88
2022-09-20T20:27:36.553Z,9.76
2022-09-20T20:30:42.334Z,9.66
2022-09-20T20:33:47.136Z,9.62
2022-09-20T20:36:58.558Z,9.64
2022-09-20T20:40:03.171Z,9.57
2022-09-20T20:43:07.600Z,9.55
2022-09-20T20:46:20.231Z,9.64
2022-09-20T20:49:27.087Z,9.65
2022-09-20T20:52:31.560Z,9.68
2022-09-20T20:55:34.510Z,9.56
2022-09-20T20:58:43.402Z,9.53
2022-09-20T21:01:47.648Z,9.52
2022-09-20T21:04:50.203Z,9.51
2022-09-20T21:07:53.543Z,9.49
2022-09-20T21:11:06.322Z,9.44
2022-09-20T21:14:13.818Z,9.37
2022-09-20T21:17:16.458Z,9.38
2022-09-20T21:20:21.198Z,9.35
2022-09-20T21:23:24.872Z,9.32
2022-09-20T21:26:35.208Z,9.29
2022-09-20T21:29:43.013Z,9.37
2022-09-20T21:32:49.963Z,9.43
2022-09-20T21:36:00.624Z,9.47
2022-09-20T21:39:06.590Z,9.36
2022-09-20T21:42:11.542Z,9.58
2022-09-20T21:45:17.429Z,9.59
2022-09-20T21:48:24.880Z,9.13
2022-09-20T21:51:31.970Z,8.92
2022-09-20T21:54:34.731Z,9.15
2022-09-20T21:57:39.919Z,9.04
2022-09-20T22:00:43.588Z,9.11
2022-09-20T22:03:55.781Z,9.38
2022-09-20T22:06:58.631Z,9.39
2022-09-20T22:10:01.753Z,9.30
2022-09-20T22:13:07.606Z,9.39
2022-09-20T22:16:18.379Z,9.39
2022-09-20T22:19:24.650Z,9.39
2022-09-20T22:22:27.828Z,9.30
2022-09-20T22:25:34.429Z,9.21
2022-09-20T22:28:37.923Z,9.31
2022-09-20T22:31:47.592Z,9.37
2022-09-20T22:34:50.487Z,9.31
2022-09-20T22:37:53.057Z,9.34
2022-09-20T22:41:01.015Z,9.31
2022-09-20T22:44:04.678Z,9.24
2022-09-20T22:47:11.280Z,9.13
2022-09-20T22:50:16.050Z,8.83
2022-09-20T22:53:19.347Z,8.86
2022-09-20T22:56:25.760Z,9.02
2022-09-20T22:59:29.354Z,9.08
2022-09-20T23:02:31.905Z,9.11
2022-09-20T23:05:43.816Z,8.93
2022-09-20T23:08:54.298Z,8.79
2022-09-20T23:11:58.387Z,8.84
2022-09-20T23:15:06.943Z,8.85
2022-09-20T23:18:09.859Z,8.79
2022-09-20T23:21:13.858Z,8.50
2022-09-20T23:24:21.094Z,8.59
2022-09-20T23:27:24.829Z,8.70
2022-09-20T23:30:33.811Z,8.68
2022-09-20T23:33:37.407Z,8.64
2022-09-20T23:36:41.452Z,8.67
2022-09-20T23:39:44.256Z,8.60
2022-09-20T23:42:47.169Z,8.59
2022-09-20T23:45:51.547Z,8.58
2022-09-20T23:48:56.724Z,8.66
2022-09-20T23:52:00.408Z,8.48
2022-09-20T23:55:08.371Z,8.47
2022-09-20T23:58:15.201Z,8.45
